createdAt,value
2023-04-20T00:04:18.716Z,88.91
2023-04-20T00:09:20.520Z,88.81
2023-04-20T00:14:22.602Z,88.81
2023-04-20T00:19:24.410Z,88.86
2023-04-20T00:24:26.540Z,88.97
2023-04-20T00:29:28.438Z,89.04
2023-04-20T00:34:32.932Z,88.67
2023-04-20T00:39:36.103Z,88.56
2023-04-20T00:44:38.871Z,88.81
2023-04-20T00:49:40.876Z,88.70
2023-04-20T00:54:45.558Z,88.89
2023-04-20T00:59:48.009Z,89.08
2023-04-20T01:04:50.402Z,89.08
2023-04-20T01:09:52.716Z,88.86
2023-04-20T01:14:54.902Z,89.02
2023-04-20T01:19:56.694Z,88.82
2023-04-20T01:24:59.164Z,89.11
2023-04-20T01:30:01.924Z,88.94
2023-04-20T01:35:05.351Z,88.59
2023-04-20T01:40:13.017Z,89.01
2023-04-20T01:45:15.164Z,88.79
2023-04-20T01:50:17.049Z,88.98
2023-04-20T01:55:20.276Z,88.89
2023-04-20T02:00:22.763Z,88.89
2023-04-20T02:05:25.162Z,88.94
2023-04-20T02:10:27.021Z,89.29
2023-04-20T02:15:29.446Z,89.09
2023-04-20T02:20:31.401Z,89.17
2023-04-20T02:25:33.721Z,88.88
2023-04-20T02:30:35.920Z,89.09
2023-04-20T02:35:39.055Z,89.45
2023-04-20T02:40:41.018Z,89.49
2023-04-20T02:45:43.405Z,89.62
2023-04-20T02:50:45.894Z,89.38
2023-04-20T02:55:56.933Z,89.51
2023-04-20T03:01:09.968Z,89.81
2023-04-20T03:06:12.707Z,89.83
2023-04-20T03:11:16.160Z,89.67
2023-04-20T03:16:18.518Z,89.75
2023-04-20T03:21:26.701Z,89.60
2023-04-20T03:26:29.428Z,89.42
2023-04-20T03:31:57.643Z,89.67
2023-04-20T03:37:00.321Z,89.50
2023-04-20T03:42:02.204Z,89.43
2023-04-20T03:47:04.820Z,89.31
2023-04-20T03:52:07.391Z,89.28
2023-04-20T03:57:10.397Z,89.89
2023-04-20T04:02:15.974Z,89.67
2023-04-20T04:07:20.772Z,89.30
2023-04-20T04:12:23.220Z,89.23
2023-04-20T04:17:26.243Z,89.14
2023-04-20T04:22:31.557Z,89.24
2023-04-20T04:28:12.842Z,89.27
2023-04-20T04:33:22.042Z,88.93
2023-04-20T04:38:25.362Z,88.96
2023-04-20T04:43:27.573Z,89.06
2023-04-20T04:48:41.130Z,88.80
2023-04-20T04:53:45.242Z,88.69
2023-04-20T04:58:47.460Z,88.63
2023-04-20T05:03:49.665Z,88.89
2023-04-20T05:08:52.201Z,88.31
2023-04-20T05:13:54.726Z,87.71
2023-04-20T05:18:57.084Z,87.90
2023-04-20T05:23:58.988Z,87.51
2023-04-20T05:29:01.954Z,87.23
2023-04-20T05:34:03.955Z,86.83
2023-04-20T05:39:06.282Z,86.83
2023-04-20T05:44:08.203Z,86.23
2023-04-20T05:49:10.532Z,85.76
2023-04-20T05:54:12.637Z,85.32
2023-04-20T05:59:16.165Z,85.15
2023-04-20T06:04:19.015Z,85.43
2023-04-20T06:09:21.783Z,85.64
2023-04-20T06:14:23.781Z,85.03
2023-04-20T06:19:25.858Z,84.69
2023-04-20T06:24:28.105Z,84.12
2023-04-20T06:29:30.466Z,83.67
2023-04-20T06:34:32.728Z,82.48
2023-04-20T06:39:35.684Z,82.31
2023-04-20T06:44:37.517Z,82.19
2023-04-20T06:49:39.550Z,81.80
2023-04-20T06:54:41.324Z,81.48
2023-04-20T06:59:43.380Z,80.54
2023-04-20T07:04:45.472Z,80.18
2023-04-20T07:09:47.431Z,79.57
2023-04-20T07:14:49.354Z,79.04
2023-04-20T07:19:52.872Z,78.43
2023-04-20T07:24:54.907Z,78.27
2023-04-20T07:29:58.800Z,76.92
2023-04-20T07:35:01.048Z,77.17
2023-04-20T07:40:06.629Z,76.12
2023-04-20T07:45:11.150Z,75.96
2023-04-20T07:50:13.591Z,75.19
2023-04-20T07:55:16.742Z,74.97
2023-04-20T08:00:19.692Z,74.66
2023-04-20T08:05:23.080Z,75.09
2023-04-20T08:10:25.827Z,75.07
2023-04-20T08:15:28.088Z,74.79
2023-04-20T08:20:30.593Z,74.69
2023-04-20T08:25:32.686Z,74.46
2023-04-20T08:30:35.157Z,74.43
2023-04-20T08:35:37.417Z,73.89
2023-04-20T08:40:40.540Z,73.13
2023-04-20T08:45:49.345Z,72.97
2023-04-20T08:50:51.763Z,73.25
2023-04-20T08:55:53.675Z,72.19
2023-04-20T09:00:55.897Z,71.33
2023-04-20T09:05:58.059Z,71.24
2023-04-20T09:11:00.243Z,71.06
2023-04-20T09:16:13.622Z,70.36
2023-04-20T09:21:18.681Z,70.44
2023-04-20T09:26:21.153Z,70.01
2023-04-20T09:31:24.429Z,70.28
2023-04-20T09:36:41.273Z,70.09
2023-04-20T09:41:44.998Z,69.62
2023-04-20T09:46:47.272Z,68.74
2023-04-20T09:51:50.648Z,68.76
2023-04-20T09:56:56.115Z,68.20
2023-04-20T10:01:58.826Z,67.37
2023-04-20T10:07:06.121Z,66.17
2023-04-20T10:12:10.178Z,66.10
2023-04-20T10:17:12.220Z,64.61
2023-04-20T10:22:30.963Z,64.91
2023-04-20T10:27:33.271Z,64.42
2023-04-20T10:32:35.655Z,64.70
2023-04-20T10:37:48.853Z,64.82
2023-04-20T10:42:50.926Z,64.45
2023-04-20T10:47:52.810Z,63.34
2023-04-20T10:52:54.784Z,62.90
2023-04-20T10:57:57.064Z,63.21
2023-04-20T11:02:59.620Z,63.06
2023-04-20T11:08:02.047Z,62.91
2023-04-20T11:13:04.156Z,63.32
2023-04-20T11:18:08.214Z,63.03
2023-04-20T11:23:11.276Z,62.30
2023-04-20T11:28:13.101Z,62.53
2023-04-20T11:33:16.429Z,62.57
2023-04-20T11:38:29.805Z,63.16
2023-04-20T11:43:32.607Z,62.61
2023-04-20T11:48:34.522Z,62.85
2023-04-20T11:53:37.985Z,63.32
2023-04-20T11:58:39.765Z,63.80
2023-04-20T12:03:43.043Z,64.23
2023-04-20T12:08:48.055Z,64.94
2023-04-20T12:13:50.482Z,64.40
2023-04-20T12:18:52.370Z,63.51
2023-04-20T12:23:54.454Z,62.38
2023-04-20T12:28:57.756Z,62.10
2023-04-20T12:34:00.613Z,62.03
2023-04-20T12:39:03.668Z,61.46
2023-04-20T12:44:07.211Z,61.11
2023-04-20T12:49:10.585Z,61.89
2023-04-20T12:54:12.903Z,61.90
2023-04-20T12:59:15.667Z,61.73
2023-04-20T13:04:18.226Z,61.33
2023-04-20T13:09:20.978Z,61.73
2023-04-20T13:14:25.833Z,62.15
2023-04-20T13:19:30.227Z,62.13
2023-04-20T13:24:32.323Z,62.58
2023-04-20T13:29:34.645Z,62.87
2023-04-20T13:34:37.072Z,62.91
2023-04-20T13:39:38.977Z,62.78
2023-04-20T13:44:41.105Z,61.94
2023-04-20T13:49:43.212Z,62.35
2023-04-20T13:54:45.229Z,62.97
2023-04-20T13:59:47.110Z,62.97
2023-04-20T14:04:49.689Z,62.67
2023-04-20T14:09:53.952Z,61.99
2023-04-20T14:15:00.447Z,61.44
2023-04-20T14:20:04.471Z,61.08
2023-04-20T14:25:07.951Z,60.84
2023-04-20T14:30:10.428Z,60.88
2023-04-20T14:35:12.606Z,60.12
2023-04-20T14:40:15.643Z,59.96
2023-04-20T14:45:17.888Z,59.87
2023-04-20T14:50:20.243Z,60.24
2023-04-20T14:55:26.299Z,60.13
2023-04-20T15:00:28.451Z,59.68
2023-04-20T15:05:30.987Z,59.71
2023-04-20T15:10:33.129Z,59.88
2023-04-20T15:15:47.495Z,59.21
2023-04-20T15:20:52.704Z,59.45
2023-04-20T15:25:55.231Z,59.53
2023-04-20T15:30:57.128Z,59.45
2023-04-20T15:35:59.262Z,59.34
2023-04-20T15:41:01.099Z,58.92
2023-04-20T15:46:03.679Z,58.78
2023-04-20T15:51:05.967Z,58.91
2023-04-20T15:56:08.736Z,59.15
2023-04-20T16:01:10.776Z,58.48
2023-04-20T16:06:13.707Z,58.74
2023-04-20T16:11:15.814Z,58.74
2023-04-20T16:16:19.189Z,58.69
2023-04-20T16:21:24.755Z,58.47
2023-04-20T16:26:26.890Z,58.42
2023-04-20T16:31:29.684Z,58.96
2023-04-20T16:36:38.263Z,59.42
2023-04-20T16:41:40.222Z,59.81
2023-04-20T16:46:43.153Z,59.42
2023-04-20T16:51:45.985Z,59.16
2023-04-20T16:56:48.761Z,59.67
2023-04-20T17:01:51.250Z,59.55
2023-04-20T17:06:54.042Z,59.89
2023-04-20T17:11:59.154Z,59.92
2023-04-20T17:17:02.114Z,60.15
2023-04-20T17:22:04.749Z,60.76
2023-04-20T17:27:06.845Z,61.11
2023-04-20T17:32:09.388Z,61.53
2023-04-20T17:37:12.186Z,62.00
2023-04-20T17:42:16.581Z,62.51
2023-04-20T17:47:18.748Z,63.11
2023-04-20T17:52:22.412Z,63.52
2023-04-20T17:57:24.612Z,64.03
2023-04-20T18:02:26.554Z,64.32
2023-04-20T18:07:28.869Z,64.85
2023-04-20T18:12:31.401Z,65.09
2023-04-20T18:17:33.769Z,65.49
2023-04-20T18:22:37.118Z,65.82
2023-04-20T18:27:39.788Z,66.17
2023-04-20T18:32:42.059Z,66.63
2023-04-20T18:37:44.324Z,66.84
2023-04-20T18:42:46.341Z,67.02
2023-04-20T18:47:48.582Z,67.17
2023-04-20T18:52:51.427Z,67.18
2023-04-20T18:57:53.519Z,67.41
2023-04-20T19:02:55.769Z,67.56
2023-04-20T19:07:58.870Z,67.73
2023-04-20T19:13:01.261Z,67.92
2023-04-20T19:18:04.345Z,67.95
2023-04-20T19:23:08.682Z,68.16
2023-04-20T19:28:12.573Z,68.40
2023-04-20T19:33:15.089Z,68.66
2023-04-20T19:38:19.186Z,68.71
2023-04-20T19:43:21.357Z,69.00
2023-04-20T19:48:23.822Z,69.18
2023-04-20T19:53:26.370Z,69.45
2023-04-20T19:58:30.881Z,69.77
2023-04-20T20:03:32.868Z,70.16
2023-04-20T20:08:35.607Z,70.32
2023-04-20T20:13:37.443Z,70.78
2023-04-20T20:18:41.968Z,71.51
2023-04-20T20:23:44.009Z,71.63
2023-04-20T20:28:46.268Z,72.10
2023-04-20T20:33:48.113Z,72.33
2023-04-20T20:38:53.670Z,72.46
2023-04-20T20:43:58.164Z,72.41
2023-04-20T20:49:01.180Z,72.99
2023-04-20T20:54:03.750Z,73.29
2023-04-20T20:59:06.054Z,73.36
2023-04-20T21:04:08.230Z,73.33
2023-04-20T21:09:10.969Z,73.63
2023-04-20T21:14:13.487Z,74.07
2023-04-20T21:19:16.142Z,74.30
2023-04-20T21:24:19.299Z,74.89
2023-04-20T21:29:21.553Z,74.69
2023-04-20T21:34:23.872Z,74.95
2023-04-20T21:39:25.966Z,75.23
2023-04-20T21:44:29.917Z,75.17
2023-04-20T21:49:34.521Z,75.58
2023-04-20T21:54:40.943Z,75.56
2023-04-20T21:59:43.019Z,75.50
2023-04-20T22:04:45.795Z,75.88
2023-04-20T22:09:47.957Z,75.83
2023-04-20T22:14:49.872Z,76.34
2023-04-20T22:19:52.328Z,76.61
2023-04-20T22:24:54.718Z,76.53
2023-04-20T22:29:56.838Z,76.83
2023-04-20T22:34:58.791Z,77.21
2023-04-20T22:40:00.905Z,77.24
2023-04-20T22:45:04.246Z,77.33
2023-04-20T22:50:09.813Z,77.85
2023-04-20T22:55:11.981Z,78.28
2023-04-20T23:00:14.646Z,78.12
2023-04-20T23:05:20.457Z,78.04
2023-04-20T23:10:28.652Z,78.66
2023-04-20T23:15:34.256Z,78.96
2023-04-20T23:20:39.867Z,78.76
2023-04-20T23:25:42.067Z,78.80
2023-04-20T23:30:44.311Z,78.87
2023-04-20T23:35:46.312Z,78.77
2023-04-20T23:40:50.492Z,78.96
2023-04-20T23:45:53.686Z,79.11
2023-04-20T23:51:02.015Z,79.38
2023-04-20T23:56:05.262Z,79.66
